Time;durP1;ratioP1;P1;durP2;ratioP2;P2;SDS_P1;SDS_P2;PMS_P1;PMS_P2;Temp;Humidity;BMP_temperature;BMP_pressure;BME280_temperature;BME280_humidity;BME280_pressure;Samples;Min_cycle;Max_cycle;Signal;HPM_P1;HPM_P2
2023/01/01 03:02:41;;;;;;;13.27;12.17;;;11.80;99.90;;;;;;5070146;23;20227;-80
2023/01/01 03:05:15;;;;;;;13.23;12.23;;;11.80;99.90;;;;;;4915682;29;20339;-80
2023/01/01 03:07:50;;;;;;;13.57;12.57;;;11.70;99.90;;;;;;4918736;29;20223;-80
2023/01/01 03:10:21;;;;;;;12.80;11.77;;;11.60;99.90;;;;;;4917420;29;20206;-80
2023/01/01 03:12:58;;;;;;;13.93;12.77;;;11.50;99.90;;;;;;4918131;29;20256;-79
2023/01/01 03:15:30;;;;;;;13.47;12.27;;;11.50;99.90;;;;;;4919128;29;20205;-81
2023/01/01 03:18:04;;;;;;;14.17;12.87;;;11.40;99.90;;;;;;4918019;29;20206;-80
2023/01/01 03:20:34;;;;;;;14.60;13.30;;;11.40;99.90;;;;;;4911118;29;20187;-80
2023/01/01 03:23:06;;;;;;;14.20;12.90;;;11.40;99.90;;;;;;4918099;29;20210;-80
2023/01/01 03:25:36;;;;;;;15.13;13.73;;;11.30;99.90;;;;;;4918461;29;20203;-80
2023/01/01 03:28:06;;;;;;;15.10;13.80;;;11.30;99.90;;;;;;4918051;29;20262;-80
2023/01/01 03:30:37;;;;;;;17.57;16.07;;;11.10;99.90;;;;;;4916557;29;20264;-80
2023/01/01 03:33:12;;;;;;;17.30;15.73;;;11.00;99.90;;;;;;4917916;29;20227;-80
2023/01/01 03:35:46;;;;;;;17.67;16.07;;;10.90;99.90;;;;;;4919190;29;20202;-80
2023/01/01 03:38:18;;;;;;;18.30;16.70;;;10.70;99.90;;;;;;4917344;29;20198;-80
2023/01/01 03:40:47;;;;;;;17.73;16.13;;;10.60;99.90;;;;;;4917788;29;20647;-79
2023/01/01 03:43:18;;;;;;;17.27;15.77;;;10.50;99.90;;;;;;4919138;29;20252;-80
2023/01/01 03:45:48;;;;;;;18.60;16.80;;;10.30;99.90;;;;;;4918616;29;20379;-80
2023/01/01 03:48:17;;;;;;;18.23;16.53;;;10.20;99.90;;;;;;4919138;29;20236;-79
2023/01/01 03:50:56;;;;;;;17.50;15.93;;;10.10;99.90;;;;;;4916905;29;20225;-80
2023/01/01 03:53:32;;;;;;;17.13;15.57;;;10.00;99.90;;;;;;4917617;29;20207;-80
2023/01/01 03:56:09;;;;;;;17.07;15.37;;;9.90;99.90;;;;;;4917943;29;20267;-80
2023/01/01 03:58:40;;;;;;;18.13;16.37;;;9.80;99.90;;;;;;4911721;29;20636;-80
2023/01/01 04:01:14;;;;;;;17.10;15.60;;;9.70;99.90;;;;;;4916410;29;20287;-80
2023/01/01 04:03:43;;;;;;;16.43;14.93;;;9.70;99.90;;;;;;4918657;29;20204;-80
2023/01/01 04:06:11;;;;;;;16.50;15.10;;;9.70;99.90;;;;;;4917266;29;20197;-80
2023/01/01 04:08:38;;;;;;;15.07;13.77;;;9.70;99.90;;;;;;4917306;29;20308;-80
2023/01/01 04:13:50;;;;;;;16.40;14.93;;;9.60;99.90;;;;;;4911511;29;20279;-80
2023/01/01 04:16:17;;;;;;;15.40;14.10;;;9.60;99.90;;;;;;4917979;29;20291;-80
2023/01/01 04:18:45;;;;;;;16.40;14.90;;;9.50;99.90;;;;;;4917564;29;20205;-80
2023/01/01 04:21:12;;;;;;;16.40;14.90;;;9.40;99.90;;;;;;4914912;29;20216;-79
2023/01/01 04:23:39;;;;;;;16.30;14.80;;;9.20;99.90;;;;;;4917281;29;20656;-80
2023/01/01 04:26:06;;;;;;;18.00;16.10;;;9.20;99.90;;;;;;4917029;29;20242;-80
2023/01/01 04:28:33;;;;;;;17.53;15.93;;;9.10;99.90;;;;;;4916871;29;20220;-79
2023/01/01 04:31:02;;;;;;;16.27;14.83;;;9.00;99.90;;;;;;4916490;29;20248;-80
2023/01/01 04:33:28;;;;;;;17.57;16.07;;;9.00;99.90;;;;;;4916235;29;20196;-80
2023/01/01 04:35:57;;;;;;;17.47;15.97;;;8.90;99.90;;;;;;4918220;29;20259;-80
2023/01/01 04:38:23;;;;;;;17.10;15.60;;;8.80;99.90;;;;;;4917958;29;20637;-80
2023/01/01 04:40:58;;;;;;;17.00;15.33;;;8.70;99.90;;;;;;4917169;29;20760;-79
2023/01/01 04:43:25;;;;;;;17.37;15.73;;;8.70;99.90;;;;;;4910793;29;20227;-79
2023/01/01 04:45:55;;;;;;;16.83;15.33;;;8.70;99.90;;;;;;4918745;29;20612;-79
2023/01/01 04:48:22;;;;;;;17.27;15.77;;;8.60;99.90;;;;;;4918255;29;20674;-79
2023/01/01 04:50:55;;;;;;;16.53;15.13;;;8.60;99.90;;;;;;4917659;29;20235;-83
2023/01/01 04:53:23;;;;;;;17.27;15.77;;;8.50;99.90;;;;;;4912476;29;20259;-80
2023/01/01 04:55:50;;;;;;;16.63;15.13;;;8.50;99.90;;;;;;4917298;29;20711;-80
2023/01/01 04:58:17;;;;;;;16.70;15.23;;;8.40;99.90;;;;;;4917500;29;20204;-80
2023/01/01 05:00:43;;;;;;;17.30;15.80;;;8.40;99.90;;;;;;4917572;29;20228;-80
2023/01/01 05:03:10;;;;;;;16.63;14.93;;;8.40;99.90;;;;;;4916960;29;20676;-80
2023/01/01 05:05:37;;;;;;;16.00;14.60;;;8.30;99.90;;;;;;4917104;29;20236;-80
2023/01/01 05:08:04;;;;;;;15.10;13.80;;;8.30;99.90;;;;;;4918346;29;20527;-80
2023/01/01 05:10:32;;;;;;;16.00;14.50;;;8.20;99.90;;;;;;4915870;29;20219;-80
2023/01/01 05:12:59;;;;;;;14.47;13.27;;;8.20;99.90;;;;;;4917124;29;20267;-80
2023/01/01 05:15:25;;;;;;;15.27;13.83;;;8.10;99.90;;;;;;4917293;29;20208;-79
2023/01/01 05:17:54;;;;;;;14.70;13.40;;;8.00;99.90;;;;;;4916852;29;20212;-79
2023/01/01 05:20:21;;;;;;;14.70;13.30;;;8.00;99.90;;;;;;4922545;29;20223;-79
2023/01/01 05:22:48;;;;;;;14.20;12.93;;;8.00;99.90;;;;;;4922930;29;20254;-79
2023/01/01 05:25:15;;;;;;;14.17;12.97;;;8.00;99.90;;;;;;4923292;29;20574;-78
2023/01/01 05:27:43;;;;;;;14.27;12.97;;;8.00;99.90;;;;;;4925186;29;20199;-78
2023/01/01 05:30:10;;;;;;;13.13;12.03;;;8.10;99.90;;;;;;4918265;29;20692;-79
2023/01/01 05:32:37;;;;;;;13.10;12.00;;;8.20;99.90;;;;;;4924774;29;20226;-78
2023/01/01 05:35:05;;;;;;;12.73;11.73;;;8.30;99.90;;;;;;4923142;29;20349;-79
2023/01/01 05:37:32;;;;;;;12.23;11.33;;;8.40;99.90;;;;;;4924303;29;20196;-79
2023/01/01 05:39:58;;;;;;;12.93;11.93;;;8.40;99.90;;;;;;4925560;29;20272;-78
2023/01/01 05:42:25;;;;;;;12.57;11.60;;;8.50;99.90;;;;;;4924205;29;20215;-78
2023/01/01 05:44:53;;;;;;;12.70;11.73;;;8.50;99.90;;;;;;4923932;29;20286;-79
2023/01/01 05:47:21;;;;;;;11.93;11.03;;;8.50;99.90;;;;;;4922714;29;20225;-79
2023/01/01 05:49:48;;;;;;;11.37;10.57;;;8.50;99.90;;;;;;4922490;29;20218;-78
2023/01/01 05:52:14;;;;;;;11.50;10.60;;;8.50;99.90;;;;;;4915225;29;20228;-77
2023/01/01 05:54:41;;;;;;;11.77;10.97;;;8.50;99.90;;;;;;4921976;29;20239;-76
2023/01/01 05:57:08;;;;;;;10.80;10.00;;;8.60;99.90;;;;;;4920763;29;20430;-77
2023/01/01 05:59:35;;;;;;;11.20;10.40;;;8.60;99.90;;;;;;4921031;29;20649;-76
2023/01/01 06:02:03;;;;;;;11.30;10.50;;;8.60;99.90;;;;;;4922083;29;20234;-76
2023/01/01 06:04:30;;;;;;;10.77;9.97;;;8.50;99.90;;;;;;4915233;29;20251;-79
2023/01/01 06:06:56;;;;;;;11.30;10.50;;;8.60;99.90;;;;;;4921348;29;20254;-78
2023/01/01 06:09:23;;;;;;;10.87;10.07;;;8.60;99.90;;;;;;4921820;29;20302;-75
2023/01/01 06:11:50;;;;;;;11.33;10.53;;;8.50;99.90;;;;;;4921595;29;20264;-76
2023/01/01 06:14:17;;;;;;;11.57;10.77;;;8.60;99.90;;;;;;4922566;29;20207;-76
2023/01/01 06:16:43;;;;;;;11.17;10.47;;;8.60;99.90;;;;;;4921462;29;20200;-79
2023/01/01 06:19:12;;;;;;;11.27;10.53;;;8.70;99.90;;;;;;4922291;29;20555;-79
2023/01/01 06:21:38;;;;;;;11.23;10.47;;;8.70;99.90;;;;;;4923008;29;20239;-79
2023/01/01 06:24:07;;;;;;;11.57;10.77;;;8.70;99.90;;;;;;4922625;29;20345;-79
2023/01/01 06:26:34;;;;;;;11.93;11.03;;;8.80;99.90;;;;;;4922155;29;20235;-78
2023/01/01 06:29:02;;;;;;;11.43;10.63;;;8.80;99.90;;;;;;4922196;29;20211;-79
2023/01/01 06:31:30;;;;;;;12.30;11.40;;;8.80;99.90;;;;;;4911806;29;20271;-79
2023/01/01 06:33:57;;;;;;;12.03;11.13;;;8.80;99.90;;;;;;4920523;29;20255;-79
2023/01/01 06:36:26;;;;;;;11.60;10.80;;;8.70;99.90;;;;;;4919008;29;20200;-78
2023/01/01 06:38:57;;;;;;;11.77;10.97;;;8.60;99.90;;;;;;4920324;29;20184;-76
2023/01/01 06:41:25;;;;;;;11.40;10.60;;;8.60;99.90;;;;;;4919573;29;20243;-76
2023/01/01 06:43:54;;;;;;;11.90;11.00;;;8.70;99.90;;;;;;4920224;29;20208;-76
2023/01/01 06:46:22;;;;;;;11.33;10.50;;;8.70;99.90;;;;;;4915994;29;20283;-77
2023/01/01 06:48:50;;;;;;;11.40;10.70;;;8.80;99.90;;;;;;4916253;29;20263;-79
2023/01/01 06:51:19;;;;;;;12.00;11.03;;;8.80;99.90;;;;;;4918044;29;20266;-79
2023/01/01 06:53:48;;;;;;;11.23;10.43;;;8.90;99.90;;;;;;4919329;29;20207;-80
2023/01/01 06:56:16;;;;;;;11.10;10.30;;;8.90;99.90;;;;;;4918558;29;20227;-80
2023/01/01 06:58:43;;;;;;;12.60;11.70;;;9.00;99.90;;;;;;4920417;29;20196;-80
2023/01/01 07:01:11;;;;;;;11.77;11.03;;;9.00;99.90;;;;;;4918205;29;20538;-78
2023/01/01 07:03:39;;;;;;;12.87;11.77;;;9.10;99.90;;;;;;4919290;29;20237;-79
2023/01/01 07:06:06;;;;;;;12.20;11.30;;;9.20;99.90;;;;;;4919540;29;20200;-80
2023/01/01 07:08:33;;;;;;;12.70;11.57;;;9.30;99.90;;;;;;4920339;29;20196;-79
2023/01/01 07:11:01;;;;;;;11.83;10.97;;;9.40;99.90;;;;;;4918981;29;20708;-79
2023/01/01 07:13:29;;;;;;;11.70;10.90;;;9.50;99.90;;;;;;4916511;29;20208;-76
2023/01/01 07:15:56;;;;;;;13.50;12.40;;;9.60;99.90;;;;;;4917563;29;20231;-79
2023/01/01 07:18:24;;;;;;;13.17;12.17;;;9.70;99.90;;;;;;4918572;29;20200;-79
2023/01/01 07:20:55;;;;;;;13.17;12.17;;;9.80;99.90;;;;;;4919392;29;20259;-79
2023/01/01 07:23:22;;;;;;;13.87;12.67;;;9.80;99.90;;;;;;4921766;29;20251;-79
2023/01/01 07:25:49;;;;;;;13.60;12.60;;;9.90;99.90;;;;;;4921488;29;20669;-79
2023/01/01 07:28:18;;;;;;;13.37;12.37;;;10.00;99.90;;;;;;4919974;29;20629;-79
2023/01/01 07:30:46;;;;;;;14.43;13.27;;;10.10;99.90;;;;;;4919967;29;20588;-79
2023/01/01 07:33:14;;;;;;;13.50;12.47;;;10.20;99.90;;;;;;4916617;29;20235;-79
2023/01/01 07:35:43;;;;;;;14.93;13.63;;;10.20;99.90;;;;;;4917970;29;20206;-79
2023/01/01 07:38:10;;;;;;;13.33;12.33;;;10.40;99.90;;;;;;4918258;29;20208;-79
2023/01/01 07:40:37;;;;;;;14.33;13.23;;;10.40;99.90;;;;;;4916935;29;20284;-79
2023/01/01 07:43:04;;;;;;;13.60;12.70;;;10.50;99.90;;;;;;4918174;29;20207;-77
2023/01/01 07:45:32;;;;;;;13.93;12.93;;;10.60;99.90;;;;;;4917450;29;20238;-78
2023/01/01 07:48:00;;;;;;;14.20;13.00;;;10.70;99.90;;;;;;4918704;29;20199;-78
2023/01/01 07:50:29;;;;;;;13.50;12.50;;;10.80;99.90;;;;;;4917528;29;20752;-83
2023/01/01 07:52:56;;;;;;;12.47;11.67;;;10.80;99.90;;;;;;4918664;29;20204;-79
2023/01/01 07:55:24;;;;;;;13.43;12.43;;;10.90;99.90;;;;;;4918391;29;20211;-78
2023/01/01 07:57:50;;;;;;;13.07;12.07;;;10.90;99.90;;;;;;4915569;29;20263;-78
2023/01/01 08:00:19;;;;;;;12.90;11.97;;;11.00;99.90;;;;;;4917543;29;20247;-79
2023/01/01 08:02:48;;;;;;;12.90;11.90;;;11.10;99.90;;;;;;4917372;29;20233;-78
2023/01/01 08:05:15;;;;;;;12.50;11.60;;;11.10;99.90;;;;;;4917271;29;20282;-79
2023/01/01 08:07:46;;;;;;;12.00;11.10;;;11.20;99.90;;;;;;4919333;29;20220;-79
2023/01/01 08:10:14;;;;;;;12.10;11.30;;;11.30;99.90;;;;;;4918455;29;20222;-77
2023/01/01 08:12:41;;;;;;;12.33;11.40;;;11.40;99.90;;;;;;4917887;29;20303;-79
2023/01/01 08:15:09;;;;;;;13.00;12.00;;;11.50;99.90;;;;;;4920254;29;20203;-77
2023/01/01 08:17:36;;;;;;;12.27;11.47;;;11.60;99.90;;;;;;4918575;29;20251;-77
2023/01/01 08:20:05;;;;;;;12.10;11.20;;;11.60;99.90;;;;;;4915008;29;20646;-79
2023/01/01 08:22:32;;;;;;;12.30;11.50;;;11.80;99.90;;;;;;4918907;29;20221;-78
2023/01/01 08:24:59;;;;;;;11.87;11.07;;;11.90;99.90;;;;;;4917709;29;20275;-78
2023/01/01 08:27:26;;;;;;;12.43;11.60;;;12.00;99.90;;;;;;4918987;29;20227;-80
2023/01/01 08:29:52;;;;;;;11.33;10.57;;;12.10;99.90;;;;;;4917154;29;20244;-79
2023/01/01 08:32:19;;;;;;;11.77;10.87;;;12.20;99.90;;;;;;4918369;29;20226;-77
2023/01/01 08:34:46;;;;;;;12.17;11.10;;;12.30;99.90;;;;;;4919477;29;20231;-78
2023/01/01 08:37:14;;;;;;;11.87;11.00;;;12.30;99.90;;;;;;4917106;29;20212;-78
2023/01/01 08:39:41;;;;;;;11.00;10.20;;;12.30;99.90;;;;;;4916654;29;20202;-79
2023/01/01 08:42:08;;;;;;;11.77;10.90;;;12.30;99.90;;;;;;4918750;29;20306;-76
2023/01/01 08:44:35;;;;;;;11.80;11.00;;;12.40;99.90;;;;;;4917024;29;20204;-78
2023/01/01 08:47:01;;;;;;;11.37;10.47;;;12.40;99.90;;;;;;4916766;29;20229;-79
2023/01/01 08:49:29;;;;;;;10.97;10.17;;;12.40;99.90;;;;;;4915745;29;20224;-79
2023/01/01 08:51:56;;;;;;;11.83;10.70;;;12.40;99.90;;;;;;4913585;29;20227;-79
2023/01/01 08:54:24;;;;;;;11.70;10.70;;;12.40;99.90;;;;;;4916931;29;20294;-79
2023/01/01 08:56:51;;;;;;;12.67;11.67;;;12.50;99.90;;;;;;4915757;29;20598;-79
2023/01/01 08:59:19;;;;;;;11.60;10.80;;;12.60;99.90;;;;;;4914445;29;20203;-77
2023/01/01 09:01:45;;;;;;;12.30;11.30;;;12.70;99.90;;;;;;4916874;29;20287;-79
2023/01/01 09:04:12;;;;;;;11.47;10.67;;;12.90;99.90;;;;;;4918820;29;20228;-79
2023/01/01 09:06:39;;;;;;;11.30;10.50;;;13.00;99.90;;;;;;4918239;29;20588;-79
2023/01/01 09:09:06;;;;;;;10.67;9.87;;;13.10;99.90;;;;;;4917945;29;20204;-80
2023/01/01 09:11:34;;;;;;;11.97;10.97;;;13.10;99.90;;;;;;4917659;29;20215;-78
2023/01/01 09:14:02;;;;;;;12.63;11.50;;;12.80;99.90;;;;;;4913814;29;20236;-79
2023/01/01 09:16:29;;;;;;;12.67;11.67;;;12.40;99.90;;;;;;4918528;29;20260;-79
2023/01/01 09:18:55;;;;;;;12.90;11.90;;;12.20;99.90;;;;;;4917647;29;20259;-80
2023/01/01 09:21:22;;;;;;;13.40;12.50;;;12.10;99.90;;;;;;4915871;29;20600;-81
2023/01/01 09:23:49;;;;;;;12.60;11.57;;;12.00;99.90;;;;;;4916705;29;20676;-78
2023/01/01 09:26:16;;;;;;;12.80;11.80;;;12.00;99.90;;;;;;4918719;29;20208;-81
2023/01/01 09:28:44;;;;;;;13.33;12.03;;;12.10;99.90;;;;;;4917652;29;20204;-82
2023/01/01 09:31:11;;;;;;;12.80;11.90;;;12.10;99.90;;;;;;4913227;29;20708;-81
2023/01/01 09:33:39;;;;;;;12.50;11.67;;;12.20;99.90;;;;;;4914352;29;20810;-80
2023/01/01 09:36:25;;;;;;;11.70;10.90;;;12.20;99.90;;;;;;4915385;29;20238;-79
2023/01/01 09:38:53;;;;;;;11.87;11.07;;;12.20;99.90;;;;;;4914782;29;20208;-80
2023/01/01 09:41:32;;;;;;;11.57;10.73;;;12.20;99.90;;;;;;4916395;29;20223;-80
2023/01/01 09:44:06;;;;;;;11.67;10.77;;;12.30;99.90;;;;;;4914887;29;20207;-80
2023/01/01 09:46:35;;;;;;;11.50;10.63;;;12.30;99.90;;;;;;4916000;29;20204;-78
2023/01/01 09:49:06;;;;;;;12.00;11.00;;;12.30;99.90;;;;;;4917427;29;20204;-79
2023/01/01 09:51:37;;;;;;;11.70;10.80;;;12.40;99.90;;;;;;4916124;29;20744;-79
2023/01/01 09:54:11;;;;;;;12.10;11.20;;;12.50;99.90;;;;;;4916590;29;20231;-79
2023/01/01 09:56:40;;;;;;;11.70;10.67;;;12.50;99.90;;;;;;4915492;29;20207;-80
2023/01/01 09:59:10;;;;;;;12.50;11.60;;;12.60;99.90;;;;;;4915325;29;20208;-79
2023/01/01 10:01:44;;;;;;;11.10;10.30;;;12.60;99.90;;;;;;4914145;29;20235;-79
2023/01/01 10:04:26;;;;;;;10.70;10.00;;;12.70;99.90;;;;;;4916445;29;20207;-78
2023/01/01 10:07:02;;;;;;;11.00;10.20;;;12.80;99.90;;;;;;4920543;29;20255;-80
2023/01/01 10:09:38;;;;;;;11.30;10.43;;;12.90;99.90;;;;;;4918041;29;20628;-79
2023/01/01 10:12:12;;;;;;;11.30;10.40;;;13.10;99.90;;;;;;4920015;29;20594;-79
2023/01/01 10:14:45;;;;;;;12.57;11.57;;;13.30;99.90;;;;;;4920078;29;20193;-80
2023/01/01 10:17:17;;;;;;;11.73;10.83;;;13.30;99.90;;;;;;4920131;29;20259;-80
2023/01/01 10:19:48;;;;;;;12.13;11.20;;;13.20;99.90;;;;;;4919319;29;20197;-80
2023/01/01 10:22:18;;;;;;;12.53;11.57;;;13.20;99.90;;;;;;4918524;29;20610;-79
2023/01/01 10:24:49;;;;;;;13.67;12.47;;;13.30;99.90;;;;;;4918689;29;20205;-80
2023/01/01 10:27:27;;;;;;;14.00;12.77;;;13.20;99.90;;;;;;4918664;29;20211;-79
2023/01/01 10:29:56;;;;;;;13.67;12.37;;;13.20;99.90;;;;;;4917415;29;20302;-80
2023/01/01 10:32:30;;;;;;;13.23;12.13;;;13.20;99.90;;;;;;4919650;29;20244;-80
2023/01/01 10:34:57;;;;;;;13.30;12.10;;;13.20;99.90;;;;;;4918156;29;20231;-80
2023/01/01 10:37:25;;;;;;;13.27;12.07;;;13.20;99.90;;;;;;4918179;29;20615;-80
2023/01/01 10:39:52;;;;;;;12.47;11.47;;;13.20;99.90;;;;;;4918623;29;20217;-79
2023/01/01 10:42:19;;;;;;;12.93;11.93;;;13.30;99.90;;;;;;4918177;29;20228;-80
2023/01/01 10:44:46;;;;;;;12.27;11.27;;;13.40;99.90;;;;;;4918422;29;20211;-80
2023/01/01 10:47:24;;;;;;;11.70;10.57;;;13.30;99.90;;;;;;4919213;29;20633;-80
2023/01/01 10:49:55;;;;;;;12.53;11.47;;;13.40;99.90;;;;;;4918908;29;20215;-80
2023/01/01 10:52:27;;;;;;;11.87;10.97;;;13.40;99.90;;;;;;4919606;29;20645;-80
2023/01/01 10:54:54;;;;;;;12.47;11.37;;;13.40;99.90;;;;;;4914051;29;20211;-79
2023/01/01 10:57:30;;;;;;;11.63;10.73;;;13.40;99.90;;;;;;4917723;29;20272;-80
2023/01/01 11:00:11;;;;;;;11.70;10.80;;;13.40;99.90;;;;;;4918424;29;20760;-80
2023/01/01 11:02:39;;;;;;;11.80;10.80;;;13.50;99.90;;;;;;4917996;29;20231;-80
2023/01/01 11:05:18;;;;;;;11.13;10.23;;;13.60;99.90;;;;;;4917643;29;20638;-80
2023/01/01 11:07:46;;;;;;;11.37;10.30;;;13.60;99.90;;;;;;4917673;29;20556;-80
2023/01/01 11:10:18;;;;;;;11.50;10.70;;;13.70;99.90;;;;;;4916854;29;20244;-80
2023/01/01 11:12:45;;;;;;;11.43;10.63;;;13.80;99.90;;;;;;4913220;29;20772;-78
2023/01/01 11:15:22;;;;;;;11.77;10.77;;;13.90;99.90;;;;;;4919776;29;20257;-77
2023/01/01 11:17:51;;;;;;;10.90;10.10;;;14.10;99.90;;;;;;4919624;29;20199;-78
2023/01/01 11:20:20;;;;;;;10.90;10.20;;;14.20;99.90;;;;;;4919642;29;20744;-79
2023/01/01 11:22:51;;;;;;;11.23;10.43;;;14.20;99.90;;;;;;4925107;29;20218;-77
2023/01/01 11:25:21;;;;;;;11.60;10.70;;;14.30;99.90;;;;;;4921549;29;20220;-77
2023/01/01 11:27:50;;;;;;;11.23;10.43;;;14.40;99.90;;;;;;4920027;29;20608;-78
2023/01/01 11:30:26;;;;;;;11.80;10.80;;;14.50;99.90;;;;;;4917570;29;20275;-78
2023/01/01 11:32:57;;;;;;;10.30;9.60;;;14.60;99.90;;;;;;4917879;29;20735;-78
2023/01/01 11:35:27;;;;;;;11.13;10.30;;;14.60;99.90;;;;;;4919132;29;20255;-78
2023/01/01 11:37:55;;;;;;;10.73;10.03;;;14.60;99.90;;;;;;4918264;29;20297;-78
2023/01/01 11:40:27;;;;;;;10.30;9.60;;;14.70;99.90;;;;;;4918292;29;20199;-78
2023/01/01 11:42:58;;;;;;;10.10;9.33;;;14.70;99.90;;;;;;4913281;29;20687;-78
2023/01/01 11:45:27;;;;;;;9.60;8.90;;;14.90;99.90;;;;;;4919020;29;20263;-78
2023/01/01 11:48:00;;;;;;;9.70;9.00;;;14.90;99.90;;;;;;4919265;29;20324;-77
2023/01/01 11:50:30;;;;;;;4.67;4.20;;;15.00;99.90;;;;;;4918750;29;20343;-78
2023/01/01 11:52:58;;;;;;;5.33;4.50;;;15.10;99.90;;;;;;4917868;29;20268;-78
2023/01/01 11:55:41;;;;;;;5.10;4.60;;;15.20;99.90;;;;;;4917766;29;20204;-77
2023/01/01 11:58:15;;;;;;;9.40;8.80;;;15.30;99.90;;;;;;4918937;29;20208;-78
2023/01/01 12:00:42;;;;;;;10.27;9.43;;;15.40;99.90;;;;;;4919161;29;20208;-77
2023/01/01 12:03:22;;;;;;;6.07;5.57;;;15.40;99.90;;;;;;4920049;29;20208;-77
2023/01/01 12:05:52;;;;;;;4.63;3.43;;;15.50;99.90;;;;;;4920407;29;20286;-78
2023/01/01 12:08:31;;;;;;;3.87;3.57;;;15.60;99.90;;;;;;4919914;29;20269;-79
2023/01/01 12:11:04;;;;;;;6.23;5.73;;;15.60;99.90;;;;;;4913800;29;20691;-79
2023/01/01 12:13:39;;;;;;;3.50;3.20;;;15.60;99.90;;;;;;4917646;29;20266;-77
2023/01/01 12:16:11;;;;;;;3.27;2.97;;;15.70;99.90;;;;;;4915266;29;20207;-78
2023/01/01 12:18:46;;;;;;;4.50;4.07;;;15.70;99.90;;;;;;4917791;29;20198;-79
2023/01/01 12:21:19;;;;;;;4.90;4.40;;;15.80;99.90;;;;;;4913778;29;20302;-79
2023/01/01 12:23:46;;;;;;;6.83;6.27;;;15.80;99.90;;;;;;4919038;29;20199;-78
2023/01/01 12:26:20;;;;;;;9.00;8.40;;;15.90;99.90;;;;;;4916655;29;20715;-79
2023/01/01 12:29:10;;;;;;;9.53;8.63;;;15.90;99.90;;;;;;4915854;29;20198;-79
2023/01/01 12:31:43;;;;;;;9.17;8.53;;;16.00;99.90;;;;;;4910557;29;20228;-78
2023/01/01 12:34:19;;;;;;;9.43;8.53;;;16.10;99.90;;;;;;4916010;29;20668;-78
2023/01/01 12:36:53;;;;;;;9.17;8.47;;;16.20;99.90;;;;;;4917632;29;20211;-78
2023/01/01 12:39:53;;;;;;;9.63;8.80;;;16.20;99.90;;;;;;4917062;29;20220;-76
2023/01/01 12:42:30;;;;;;;9.40;8.80;;;16.10;99.90;;;;;;4917138;29;20299;-77
2023/01/01 12:45:17;;;;;;;9.13;8.50;;;16.10;99.90;;;;;;4916672;29;20211;-77
2023/01/01 12:47:53;;;;;;;9.23;8.63;;;16.10;99.90;;;;;;4905642;29;20203;-77
2023/01/01 12:50:37;;;;;;;9.63;8.93;;;16.10;99.90;;;;;;4918216;29;20215;-80
2023/01/01 12:53:17;;;;;;;10.20;9.40;;;16.10;99.90;;;;;;4920761;29;20196;-80
2023/01/01 12:56:02;;;;;;;10.10;9.30;;;16.20;99.90;;;;;;4918375;29;20207;-78
2023/01/01 12:58:33;;;;;;;9.33;8.73;;;16.10;99.90;;;;;;4917548;29;20303;-78
2023/01/01 13:01:05;;;;;;;10.10;9.20;;;16.10;99.90;;;;;;4917477;29;20231;-78
2023/01/01 13:03:37;;;;;;;10.40;9.40;;;16.20;99.90;;;;;;4916880;29;20240;-78
2023/01/01 13:06:07;;;;;;;9.97;9.27;;;16.20;99.90;;;;;;4919125;29;20543;-77
2023/01/01 13:08:36;;;;;;;9.70;8.90;;;16.30;99.90;;;;;;4916366;29;20610;-76
2023/01/01 13:11:05;;;;;;;8.93;8.33;;;16.30;99.90;;;;;;4915946;29;20224;-75
2023/01/01 13:13:32;;;;;;;9.13;8.43;;;16.40;99.90;;;;;;4917191;29;20204;-79
2023/01/01 13:15:59;;;;;;;9.43;8.70;;;16.30;99.90;;;;;;4917737;29;20202;-81
2023/01/01 13:18:30;;;;;;;10.43;9.53;;;16.30;99.90;;;;;;4914643;29;20264;-78
2023/01/01 13:21:01;;;;;;;10.10;9.30;;;16.30;99.90;;;;;;4914975;29;20572;-80
2023/01/01 13:23:49;;;;;;;9.43;8.73;;;16.30;99.90;;;;;;4915187;29;20309;-80
2023/01/01 13:26:32;;;;;;;9.53;8.90;;;16.40;99.90;;;;;;4914562;29;20204;-79
2023/01/01 13:29:36;;;;;;;9.40;8.70;;;16.40;99.90;;;;;;4914206;29;20628;-78
2023/01/01 13:32:09;;;;;;;9.67;8.97;;;16.40;99.90;;;;;;4930540;29;20223;-78
2023/01/01 13:35:04;;;;;;;9.40;8.60;;;16.40;99.90;;;;;;4914947;29;20222;-78
2023/01/01 13:37:52;;;;;;;9.20;8.60;;;16.40;99.90;;;;;;4909918;29;20200;-78
2023/01/01 13:40:49;;;;;;;10.27;9.37;;;16.40;99.90;;;;;;4915593;29;20208;-79
2023/01/01 13:43:28;;;;;;;9.67;8.63;;;16.40;99.90;;;;;;4919290;29;20188;-79
2023/01/01 13:45:55;;;;;;;9.10;8.40;;;16.40;99.90;;;;;;4919584;29;20208;-79
2023/01/01 13:48:44;;;;;;;9.47;8.77;;;16.40;99.90;;;;;;4918933;29;20211;-78
2023/01/01 13:51:35;;;;;;;8.60;8.10;;;16.30;99.90;;;;;;4919708;29;20219;-78
2023/01/01 13:54:25;;;;;;;9.43;8.73;;;16.30;99.90;;;;;;4916374;29;20263;-78
2023/01/01 13:56:58;;;;;;;9.23;8.40;;;16.30;99.90;;;;;;4920451;29;20257;-78
2023/01/01 13:59:45;;;;;;;9.30;8.60;;;16.30;99.90;;;;;;4919982;29;20207;-76
2023/01/01 14:02:22;;;;;;;8.97;8.37;;;16.30;99.90;;;;;;4919267;29;20227;-78
2023/01/01 14:04:54;;;;;;;9.20;8.60;;;16.20;99.90;;;;;;4919448;29;20207;-79
2023/01/01 14:07:31;;;;;;;9.27;8.47;;;16.20;99.90;;;;;;4920514;29;20211;-79
2023/01/01 14:10:17;;;;;;;9.73;8.83;;;16.20;99.90;;;;;;4917803;29;20203;-78
2023/01/01 14:12:46;;;;;;;9.73;8.73;;;16.20;99.90;;;;;;4913200;29;20279;-78
2023/01/01 14:15:23;;;;;;;9.60;8.90;;;16.20;99.90;;;;;;4920532;29;20256;-78
2023/01/01 14:17:50;;;;;;;10.07;9.17;;;16.10;99.90;;;;;;4920053;29;20209;-79
2023/01/01 14:20:20;;;;;;;9.80;9.10;;;16.10;99.90;;;;;;4918842;29;20247;-79
2023/01/01 14:22:49;;;;;;;10.10;9.40;;;16.10;99.90;;;;;;4920345;29;20267;-79
2023/01/01 14:25:20;;;;;;;9.83;9.03;;;16.00;99.90;;;;;;4918794;29;20208;-78
2023/01/01 14:27:48;;;;;;;9.93;9.03;;;16.00;99.90;;;;;;4920542;29;20199;-79
2023/01/01 14:30:17;;;;;;;9.90;9.10;;;16.00;99.90;;;;;;4918251;29;20204;-79
2023/01/01 14:32:44;;;;;;;9.70;9.00;;;16.00;99.90;;;;;;4918872;29;20615;-79
2023/01/01 14:35:16;;;;;;;9.40;8.70;;;15.90;99.90;;;;;;4918284;29;20215;-78
2023/01/01 14:37:43;;;;;;;9.30;8.50;;;15.90;99.90;;;;;;4918410;29;20632;-79
2023/01/01 14:40:25;;;;;;;9.63;8.77;;;15.90;99.90;;;;;;4918870;29;20668;-78
2023/01/01 14:42:57;;;;;;;9.57;8.87;;;15.80;99.90;;;;;;4918809;29;20196;-78
2023/01/01 14:45:25;;;;;;;9.77;8.90;;;15.80;99.90;;;;;;4917932;29;20207;-78
2023/01/01 14:47:53;;;;;;;8.97;8.37;;;15.70;99.90;;;;;;4918505;29;20212;-79
2023/01/01 14:50:25;;;;;;;9.87;9.07;;;15.70;99.90;;;;;;4918088;29;20204;-78
2023/01/01 14:52:55;;;;;;;9.90;9.20;;;15.60;99.90;;;;;;4918275;29;20283;-78
2023/01/01 14:55:25;;;;;;;9.93;9.17;;;15.60;99.90;;;;;;4918204;29;20263;-78
2023/01/01 14:57:58;;;;;;;9.67;8.97;;;15.40;99.90;;;;;;4918029;29;20207;-79
2023/01/01 15:00:26;;;;;;;10.17;9.40;;;15.40;99.90;;;;;;4918674;29;20204;-79
2023/01/01 15:02:54;;;;;;;9.67;8.80;;;15.30;99.90;;;;;;4919463;29;20238;-79
2023/01/01 15:05:30;;;;;;;9.80;9.10;;;15.20;99.90;;;;;;4919730;29;20671;-78
2023/01/01 15:07:58;;;;;;;9.30;8.70;;;15.10;99.90;;;;;;4920378;29;20555;-78
2023/01/01 15:10:26;;;;;;;9.60;8.70;;;15.00;99.90;;;;;;4918133;29;20212;-77
2023/01/01 15:12:55;;;;;;;10.43;9.50;;;15.00;99.90;;;;;;4919352;29;20240;-76
2023/01/01 15:15:40;;;;;;;10.57;9.77;;;14.90;99.90;;;;;;4919308;29;20303;-81
2023/01/01 15:18:37;;;;;;;9.90;9.20;;;14.80;99.90;;;;;;4921717;29;20211;-81
2023/01/01 15:21:07;;;;;;;10.57;9.77;;;14.70;99.90;;;;;;4920135;29;20237;-78
2023/01/01 15:23:34;;;;;;;10.03;9.23;;;14.60;99.90;;;;;;4920631;29;20238;-78
2023/01/01 15:26:02;;;;;;;9.70;9.03;;;14.50;99.90;;;;;;4920513;29;20214;-77
2023/01/01 15:28:30;;;;;;;10.03;9.30;;;14.40;99.90;;;;;;4921330;29;20428;-78
2023/01/01 15:31:00;;;;;;;10.20;9.50;;;14.40;99.90;;;;;;4920005;29;20699;-79
2023/01/01 15:33:27;;;;;;;10.13;9.30;;;14.30;99.90;;;;;;4916936;29;20299;-77
2023/01/01 15:35:59;;;;;;;9.83;9.07;;;14.20;99.90;;;;;;4918263;29;20281;-76
2023/01/01 15:38:32;;;;;;;9.60;8.93;;;14.20;99.90;;;;;;4920190;29;20699;-79
2023/01/01 15:40:59;;;;;;;10.27;9.40;;;14.10;99.90;;;;;;4911636;29;20275;-78
2023/01/01 15:43:32;;;;;;;10.13;9.30;;;14.10;99.90;;;;;;4920217;29;20200;-77
2023/01/01 15:46:11;;;;;;;9.97;9.27;;;14.00;99.90;;;;;;4921270;29;20261;-78
2023/01/01 15:48:47;;;;;;;9.60;9.00;;;14.00;99.90;;;;;;4920328;29;20209;-78
2023/01/01 15:51:20;;;;;;;9.70;9.00;;;13.90;99.90;;;;;;4918484;29;20647;-79
2023/01/01 15:53:52;;;;;;;10.90;10.10;;;13.90;99.90;;;;;;4916309;29;20201;-78
2023/01/01 15:56:24;;;;;;;9.47;8.87;;;13.80;99.90;;;;;;4919539;29;20304;-78
2023/01/01 15:58:55;;;;;;;9.80;9.00;;;13.70;99.90;;;;;;4920586;29;20231;-78